Time;durP1;ratioP1;P1;durP2;ratioP2;P2;SDS_P1;SDS_P2;PMS_P1;PMS_P2;Temp;Humidity;BMP_temperature;BMP_pressure;BME280_temperature;BME280_humidity;BME280_pressure;Samples;Min_cycle;Max_cycle;Signal;HPM_P1;HPM_P2
2023/03/28 00:00:12;;;;;;;12.05;1.00;;;7.40;87.00;;;;;;4788079;30;20049;-79
2023/03/28 00:02:37;;;;;;;6.60;1.00;;;7.30;87.40;;;;;;4773103;30;20039;-78
2023/03/28 00:05:03;;;;;;;6.97;0.88;;;7.30;87.80;;;;;;4773151;30;20043;-78
2023/03/28 00:07:29;;;;;;;10.18;1.10;;;7.30;87.90;;;;;;4772955;30;20038;-79
2023/03/28 00:09:56;;;;;;;6.47;1.00;;;7.30;87.90;;;;;;4758590;30;20067;-79
2023/03/28 00:12:22;;;;;;;7.75;1.00;;;7.30;87.90;;;;;;4777402;30;20046;-78
2023/03/28 00:14:48;;;;;;;6.45;0.82;;;7.30;88.10;;;;;;4794189;30;20069;-78
2023/03/28 00:17:16;;;;;;;9.32;1.02;;;7.40;88.30;;;;;;4774015;30;20478;-79
2023/03/28 00:19:45;;;;;;;6.20;1.00;;;7.40;88.40;;;;;;4773023;30;20088;-78
2023/03/28 00:22:11;;;;;;;7.18;1.20;;;7.50;88.40;;;;;;4787553;30;20031;-78
2023/03/28 00:24:39;;;;;;;7.25;2.00;;;7.50;88.30;;;;;;4787657;30;20042;-78
2023/03/28 00:27:06;;;;;;;7.18;0.82;;;7.50;88.10;;;;;;4772625;30;20039;-78
2023/03/28 00:29:32;;;;;;;5.50;0.80;;;7.60;88.10;;;;;;4772766;30;20035;-78
2023/03/28 00:31:58;;;;;;;4.63;0.75;;;7.60;88.10;;;;;;4787482;30;20100;-78
2023/03/28 00:34:24;;;;;;;7.25;0.85;;;7.70;88.10;;;;;;4772682;30;20039;-78
2023/03/28 00:36:52;;;;;;;8.38;1.23;;;7.70;88.00;;;;;;4772431;30;20039;-78
2023/03/28 00:39:18;;;;;;;7.57;0.95;;;7.70;87.80;;;;;;4787072;29;20038;-78
2023/03/28 00:41:45;;;;;;;7.10;1.08;;;7.60;87.80;;;;;;4769276;30;20144;-78
2023/03/28 00:44:40;;;;;;;10.35;1.58;;;7.60;87.90;;;;;;4769912;30;20040;-78
2023/03/28 00:47:20;;;;;;;9.43;1.38;;;7.70;87.90;;;;;;4771348;30;20070;-78
2023/03/28 00:49:48;;;;;;;6.25;1.10;;;7.70;87.90;;;;;;4770011;30;20059;-78
2023/03/28 00:52:16;;;;;;;6.60;1.02;;;7.70;88.10;;;;;;4770378;30;20088;-78
2023/03/28 00:54:43;;;;;;;8.80;1.02;;;7.70;88.10;;;;;;4784754;30;20098;-78
2023/03/28 00:57:10;;;;;;;5.80;1.30;;;7.70;88.20;;;;;;4783906;30;20150;-78
2023/03/28 00:59:37;;;;;;;9.05;1.25;;;7.70;88.10;;;;;;4770191;30;20063;-78
2023/03/28 01:02:04;;;;;;;11.20;1.85;;;7.60;88.30;;;;;;4770452;30;20032;-78
2023/03/28 01:05:00;;;;;;;6.03;1.30;;;7.40;88.80;;;;;;4784694;30;20046;-77
2023/03/28 01:07:34;;;;;;;9.13;1.48;;;7.30;89.00;;;;;;4767915;30;20111;-78
2023/03/28 01:10:02;;;;;;;8.68;1.80;;;7.30;89.20;;;;;;4770472;30;20031;-78
2023/03/28 01:12:27;;;;;;;8.27;1.63;;;7.30;89.50;;;;;;4783923;30;20547;-78
2023/03/28 01:14:54;;;;;;;9.13;1.20;;;7.30;89.60;;;;;;4754103;30;20043;-78
2023/03/28 01:17:20;;;;;;;11.70;1.70;;;7.30;89.60;;;;;;4769444;30;20374;-78
2023/03/28 01:20:17;;;;;;;7.47;1.52;;;7.30;89.60;;;;;;4769248;30;20048;-78
2023/03/28 01:23:24;;;;;;;8.57;1.52;;;7.40;89.70;;;;;;4771074;30;20036;-79
2023/03/28 01:26:12;;;;;;;8.75;1.55;;;7.40;89.70;;;;;;4770027;30;20054;-78
2023/03/28 01:29:01;;;;;;;8.82;1.30;;;7.40;89.80;;;;;;4770684;30;20032;-78
2023/03/28 01:31:56;;;;;;;13.88;1.65;;;7.40;89.90;;;;;;4784904;30;20037;-78
2023/03/28 01:34:43;;;;;;;6.65;1.27;;;7.40;90.00;;;;;;4770569;30;20474;-78
2023/03/28 01:37:33;;;;;;;7.85;1.27;;;7.40;90.00;;;;;;4771115;30;20047;-78
2023/03/28 01:40:11;;;;;;;6.63;1.48;;;7.50;90.10;;;;;;4769818;30;20446;-78
2023/03/28 01:43:05;;;;;;;9.45;1.75;;;7.50;90.00;;;;;;4785257;30;20497;-78
2023/03/28 01:45:56;;;;;;;8.93;1.42;;;7.50;90.00;;;;;;4788948;30;20089;-78
2023/03/28 01:48:41;;;;;;;6.28;1.40;;;7.50;90.00;;;;;;4787113;30;20031;-78
2023/03/28 01:51:19;;;;;;;8.60;1.70;;;7.40;89.80;;;;;;4789052;29;20039;-78
2023/03/28 01:53:52;;;;;;;6.82;1.50;;;7.30;90.10;;;;;;4776553;30;20050;-78
2023/03/28 01:56:25;;;;;;;7.30;1.65;;;7.20;90.40;;;;;;4791665;30;20035;-80
2023/03/28 01:59:16;;;;;;;6.43;1.70;;;7.10;90.40;;;;;;4775670;30;20196;-78
2023/03/28 02:02:10;;;;;;;8.60;1.60;;;7.10;90.50;;;;;;4775876;30;20035;-79
2023/03/28 02:04:38;;;;;;;6.57;1.50;;;7.10;90.50;;;;;;4791460;30;20039;-78
2023/03/28 02:07:04;;;;;;;10.00;1.63;;;7.10;90.70;;;;;;4775679;30;20106;-78
2023/03/28 02:09:31;;;;;;;4.10;1.38;;;7.00;90.70;;;;;;4775613;30;20123;-78
2023/03/28 02:12:20;;;;;;;8.10;2.08;;;7.00;91.10;;;;;;4790868;30;20441;-79
2023/03/28 02:14:47;;;;;;;7.35;2.08;;;7.00;90.90;;;;;;4791221;30;20123;-79
2023/03/28 02:17:15;;;;;;;9.02;2.00;;;6.90;91.00;;;;;;4791318;30;20054;-78
2023/03/28 02:19:57;;;;;;;10.93;2.38;;;6.90;91.10;;;;;;4791692;30;20023;-78
2023/03/28 02:22:38;;;;;;;12.75;2.50;;;6.70;91.40;;;;;;4790244;30;20038;-78
2023/03/28 02:25:04;;;;;;;7.57;1.70;;;6.60;91.50;;;;;;4790702;30;20118;-78
2023/03/28 02:27:33;;;;;;;9.38;2.35;;;6.60;91.70;;;;;;4790635;30;20448;-78
2023/03/28 02:30:00;;;;;;;7.82;1.92;;;6.70;91.90;;;;;;4775568;30;20494;-79
2023/03/28 02:32:25;;;;;;;7.28;2.42;;;6.70;91.90;;;;;;4791556;30;20035;-78
2023/03/28 02:34:54;;;;;;;8.15;1.80;;;6.80;92.00;;;;;;4760278;30;20509;-78
2023/03/28 02:37:56;;;;;;;11.02;1.88;;;6.80;91.90;;;;;;4791112;30;20114;-78
2023/03/28 02:40:31;;;;;;;7.10;2.20;;;6.90;91.90;;;;;;4790711;30;20433;-79
2023/03/28 02:43:25;;;;;;;8.05;1.65;;;6.90;91.80;;;;;;4774512;30;20115;-79
2023/03/28 02:45:50;;;;;;;6.30;2.22;;;7.00;91.80;;;;;;4791103;30;20035;-79
2023/03/28 02:48:31;;;;;;;6.15;1.80;;;7.00;91.70;;;;;;4774811;30;20032;-79
2023/03/28 02:51:33;;;;;;;6.10;1.83;;;7.00;91.80;;;;;;4790574;30;20054;-79
2023/03/28 02:54:05;;;;;;;12.73;2.20;;;7.00;91.80;;;;;;4791118;30;20044;-79
2023/03/28 02:56:45;;;;;;;8.20;1.90;;;7.10;91.80;;;;;;4791150;30;20062;-78
2023/03/28 02:59:16;;;;;;;8.35;1.98;;;7.10;91.80;;;;;;4790137;30;20031;-78
2023/03/28 03:01:43;;;;;;;12.27;2.65;;;7.10;91.80;;;;;;4790418;29;20092;-78
2023/03/28 03:04:10;;;;;;;7.68;2.03;;;7.10;91.80;;;;;;4775377;30;20047;-78
2023/03/28 03:06:35;;;;;;;8.00;2.30;;;7.00;91.90;;;;;;4774458;30;20039;-78
2023/03/28 03:09:03;;;;;;;8.55;2.00;;;7.00;91.90;;;;;;4774475;30;20085;-78
2023/03/28 03:11:29;;;;;;;7.43;1.83;;;7.00;91.90;;;;;;4774571;30;20130;-78
2023/03/28 03:13:56;;;;;;;8.00;1.83;;;7.00;91.90;;;;;;4774132;30;20039;-80
2023/03/28 03:16:22;;;;;;;7.13;1.67;;;7.10;91.90;;;;;;4774400;30;20031;-78
2023/03/28 03:18:48;;;;;;;9.45;2.45;;;7.10;92.00;;;;;;4790972;30;20032;-78
2023/03/28 03:21:14;;;;;;;7.32;1.80;;;7.10;91.90;;;;;;4774262;30;20036;-79
2023/03/28 03:23:40;;;;;;;10.48;1.77;;;7.10;91.90;;;;;;4790128;30;20035;-78
2023/03/28 03:26:06;;;;;;;9.02;1.90;;;7.10;91.90;;;;;;4789365;30;20104;-78
2023/03/28 03:28:32;;;;;;;6.93;1.52;;;7.10;91.90;;;;;;4790573;30;20035;-78
2023/03/28 03:30:57;;;;;;;12.55;1.90;;;7.10;91.90;;;;;;4774708;30;20039;-78
2023/03/28 03:33:23;;;;;;;13.23;2.15;;;7.10;91.80;;;;;;4789413;30;20035;-79
2023/03/28 03:35:50;;;;;;;7.15;1.92;;;7.00;91.80;;;;;;4773793;30;20477;-78
2023/03/28 03:38:15;;;;;;;6.68;1.98;;;7.00;91.90;;;;;;4790108;30;20088;-78
2023/03/28 03:40:41;;;;;;;7.50;1.92;;;7.00;92.00;;;;;;4788921;30;20580;-78
2023/03/28 03:43:06;;;;;;;7.90;2.10;;;7.00;92.00;;;;;;4774157;30;20401;-78
2023/03/28 03:45:32;;;;;;;12.05;1.95;;;7.00;92.10;;;;;;4789818;30;20035;-78
2023/03/28 03:47:58;;;;;;;9.00;2.13;;;7.00;92.10;;;;;;4773784;30;20130;-77
2023/03/28 03:50:23;;;;;;;8.05;2.25;;;7.00;92.00;;;;;;4773619;30;20031;-79
2023/03/28 03:52:49;;;;;;;7.63;1.75;;;7.00;92.00;;;;;;4789672;30;20447;-79
2023/03/28 03:55:15;;;;;;;11.35;2.80;;;7.00;92.00;;;;;;4774078;30;20439;-79
2023/03/28 03:57:40;;;;;;;12.40;2.63;;;7.00;92.00;;;;;;4788627;30;20059;-79
2023/03/28 04:00:10;;;;;;;6.18;2.22;;;7.00;92.10;;;;;;4773678;30;20421;-78
2023/03/28 04:02:37;;;;;;;6.22;2.13;;;7.00;92.10;;;;;;4773638;30;20050;-78
2023/03/28 04:05:03;;;;;;;13.02;2.78;;;7.00;92.10;;;;;;4789667;30;20109;-79
2023/03/28 04:07:29;;;;;;;12.20;2.17;;;7.00;92.10;;;;;;4788376;30;20424;-78
2023/03/28 04:09:55;;;;;;;10.40;2.55;;;7.00;92.10;;;;;;4789873;30;20063;-79
2023/03/28 04:12:21;;;;;;;12.10;2.78;;;7.00;92.10;;;;;;4789091;30;20039;-78
2023/03/28 04:14:47;;;;;;;10.57;2.17;;;7.00;92.10;;;;;;4788662;29;20116;-78
2023/03/28 04:17:14;;;;;;;9.18;2.47;;;7.00;92.20;;;;;;4788202;30;20070;-78
2023/03/28 04:19:40;;;;;;;7.82;2.58;;;6.90;92.20;;;;;;4789416;30;20042;-78
2023/03/28 04:22:07;;;;;;;8.25;2.22;;;6.80;92.40;;;;;;4789681;30;20389;-78
2023/03/28 04:24:35;;;;;;;10.00;2.42;;;6.70;92.70;;;;;;4773210;30;20072;-79
2023/03/28 04:27:02;;;;;;;10.10;2.67;;;6.60;92.80;;;;;;4789318;30;20043;-78
2023/03/28 04:29:30;;;;;;;11.00;2.63;;;6.60;93.00;;;;;;4789312;30;20070;-79
2023/03/28 04:31:57;;;;;;;5.78;2.10;;;6.50;93.20;;;;;;4789280;30;20058;-78
2023/03/28 04:34:30;;;;;;;10.52;2.53;;;6.50;93.10;;;;;;4787885;30;20078;-78
2023/03/28 04:37:00;;;;;;;9.57;2.55;;;6.50;93.20;;;;;;4789964;30;20039;-77
2023/03/28 04:39:30;;;;;;;6.65;2.20;;;6.50;93.40;;;;;;4772981;30;20040;-78
2023/03/28 04:42:00;;;;;;;9.55;2.40;;;6.50;93.50;;;;;;4789041;30;20137;-78
2023/03/28 04:44:26;;;;;;;10.63;3.03;;;6.40;93.50;;;;;;4787761;30;20043;-78
2023/03/28 04:46:52;;;;;;;9.23;2.60;;;6.50;93.70;;;;;;4788718;30;20035;-78
2023/03/28 04:49:18;;;;;;;6.93;2.42;;;6.50;93.80;;;;;;4772832;30;20392;-78
2023/03/28 04:51:43;;;;;;;10.40;2.75;;;6.50;93.90;;;;;;4773193;30;20119;-79
2023/03/28 04:54:09;;;;;;;11.55;2.90;;;6.50;93.90;;;;;;4772608;30;20039;-79
2023/03/28 04:56:35;;;;;;;5.88;2.42;;;6.50;94.10;;;;;;4788865;30;20042;-75
2023/03/28 04:59:00;;;;;;;10.63;2.50;;;6.50;94.20;;;;;;4789017;30;20049;-78
2023/03/28 05:01:26;;;;;;;9.57;2.65;;;6.50;94.20;;;;;;4788540;30;20043;-78
2023/03/28 05:03:52;;;;;;;9.20;3.03;;;6.50;94.20;;;;;;4772515;30;20115;-78
2023/03/28 05:06:18;;;;;;;10.27;3.00;;;6.60;94.20;;;;;;4773131;30;20043;-78
2023/03/28 05:08:43;;;;;;;11.68;3.15;;;6.50;94.10;;;;;;4772857;30;20035;-78
2023/03/28 05:11:10;;;;;;;8.60;2.63;;;6.60;94.10;;;;;;4772627;30;20031;-79
2023/03/28 05:13:36;;;;;;;10.63;3.25;;;6.60;94.10;;;;;;4772454;30;20100;-80
2023/03/28 05:16:02;;;;;;;9.50;2.85;;;6.60;94.00;;;;;;4772481;30;20126;-77
2023/03/28 05:18:27;;;;;;;8.88;2.78;;;6.60;94.00;;;;;;4772778;30;20119;-77
2023/03/28 05:20:53;;;;;;;8.93;2.85;;;6.60;94.10;;;;;;4788600;30;20045;-77
2023/03/28 05:23:19;;;;;;;6.40;2.45;;;6.60;94.10;;;;;;4788348;30;20110;-77
2023/03/28 05:25:51;;;;;;;8.85;3.45;;;6.60;94.10;;;;;;4788372;30;20054;-79
2023/03/28 05:28:18;;;;;;;9.38;3.20;;;6.60;94.10;;;;;;4772280;30;20067;-78
2023/03/28 05:30:43;;;;;;;9.27;3.47;;;6.50;94.10;;;;;;4772492;30;20078;-76
2023/03/28 05:33:09;;;;;;;10.68;3.00;;;6.50;94.10;;;;;;4788427;30;20063;-76
2023/03/28 05:35:36;;;;;;;8.70;3.42;;;6.50;94.30;;;;;;4772084;30;20481;-76
2023/03/28 05:38:02;;;;;;;10.07;3.30;;;6.50;94.30;;;;;;4772321;30;20553;-76
2023/03/28 05:40:28;;;;;;;7.97;3.10;;;6.50;94.30;;;;;;4788591;30;20039;-77
2023/03/28 05:42:54;;;;;;;9.95;3.05;;;6.50;94.30;;;;;;4788881;30;20435;-77
2023/03/28 05:45:20;;;;;;;10.02;3.60;;;6.50;94.30;;;;;;4772254;30;20484;-77
2023/03/28 05:47:45;;;;;;;9.35;3.10;;;6.50;94.20;;;;;;4788239;30;20031;-78
2023/03/28 05:50:11;;;;;;;12.15;2.97;;;6.40;94.20;;;;;;4788567;30;20465;-78
2023/03/28 05:52:37;;;;;;;8.05;3.20;;;6.40;94.30;;;;;;4772004;30;20497;-78
2023/03/28 05:55:06;;;;;;;9.95;2.53;;;6.40;94.30;;;;;;4772096;30;20055;-77
2023/03/28 05:57:35;;;;;;;9.75;2.35;;;6.30;94.40;;;;;;4772620;30;20067;-78
2023/03/28 06:00:03;;;;;;;10.10;2.90;;;6.20;94.30;;;;;;4787649;30;20346;-76
2023/03/28 06:02:29;;;;;;;6.63;2.55;;;6.20;94.50;;;;;;4788630;30;20069;-77
2023/03/28 06:04:55;;;;;;;10.57;2.78;;;6.10;94.60;;;;;;4788322;30;20039;-77
2023/03/28 06:07:21;;;;;;;12.40;2.30;;;6.00;94.70;;;;;;4787836;30;20036;-77
2023/03/28 06:09:47;;;;;;;10.35;2.78;;;6.10;94.80;;;;;;4788114;30;20035;-77
2023/03/28 06:12:13;;;;;;;14.50;2.90;;;6.00;94.80;;;;;;4771849;30;20036;-78
2023/03/28 06:14:39;;;;;;;8.27;2.47;;;6.00;95.00;;;;;;4772518;30;20046;-77
2023/03/28 06:17:06;;;;;;;8.52;2.15;;;6.00;95.20;;;;;;4771456;30;20464;-77
2023/03/28 06:19:32;;;;;;;11.55;2.97;;;5.90;95.20;;;;;;4772211;30;20496;-77
2023/03/28 06:22:01;;;;;;;6.70;2.65;;;6.00;95.30;;;;;;4771903;30;20043;-78
2023/03/28 06:24:27;;;;;;;14.55;3.03;;;6.00;95.60;;;;;;4771399;30;20088;-77
2023/03/28 06:26:53;;;;;;;10.50;3.05;;;6.00;95.50;;;;;;4788133;30;20039;-77
2023/03/28 06:29:19;;;;;;;7.70;2.33;;;6.00;95.70;;;;;;4771713;30;20104;-78
2023/03/28 06:31:44;;;;;;;5.88;2.05;;;6.00;95.80;;;;;;4772411;30;20114;-78
2023/03/28 06:34:10;;;;;;;12.05;2.95;;;5.90;95.90;;;;;;4771580;30;20134;-78
2023/03/28 06:36:36;;;;;;;9.57;2.72;;;5.90;95.90;;;;;;4771530;30;20043;-79
2023/03/28 06:39:02;;;;;;;9.98;2.60;;;5.90;95.90;;;;;;4759983;30;20035;-78
2023/03/28 06:41:27;;;;;;;10.23;2.33;;;5.90;95.80;;;;;;4774457;30;20059;-78
2023/03/28 06:43:53;;;;;;;10.48;2.50;;;5.90;95.90;;;;;;4760013;30;20043;-78
2023/03/28 06:46:19;;;;;;;10.68;2.75;;;5.90;95.90;;;;;;4790957;30;20043;-77
2023/03/28 06:48:45;;;;;;;7.13;2.25;;;5.70;95.90;;;;;;4774915;30;20040;-78
2023/03/28 06:51:14;;;;;;;7.25;2.55;;;5.70;96.10;;;;;;4790653;30;20027;-77
2023/03/28 06:53:40;;;;;;;8.23;2.40;;;5.70;96.30;;;;;;4774980;30;20389;-78
2023/03/28 06:56:06;;;;;;;9.63;2.33;;;5.70;96.50;;;;;;4774744;30;20032;-77
2023/03/28 06:58:32;;;;;;;8.50;2.28;;;5.80;96.80;;;;;;4774571;30;20035;-78
2023/03/28 07:00:59;;;;;;;10.00;2.42;;;5.80;96.80;;;;;;4790725;30;20269;-76
2023/03/28 07:03:25;;;;;;;10.70;2.35;;;5.90;96.90;;;;;;4789252;30;20457;-77
2023/03/28 07:05:51;;;;;;;8.98;2.25;;;6.00;97.00;;;;;;4774336;30;20038;-76
2023/03/28 07:08:17;;;;;;;11.73;2.67;;;6.10;97.10;;;;;;4774246;30;20122;-77
2023/03/28 07:10:42;;;;;;;11.48;2.22;;;6.20;96.70;;;;;;4774618;30;20088;-76
2023/03/28 07:13:11;;;;;;;10.20;2.63;;;6.30;96.60;;;;;;4790542;30;20040;-76
2023/03/28 07:15:36;;;;;;;6.43;2.30;;;6.50;96.60;;;;;;4759708;30;20477;-76
2023/03/28 07:18:02;;;;;;;10.85;2.58;;;6.60;96.70;;;;;;4774353;30;20035;-76
2023/03/28 07:20:28;;;;;;;10.48;2.40;;;6.70;96.50;;;;;;4775379;30;20039;-75
2023/03/28 07:22:53;;;;;;;7.38;1.73;;;6.80;96.50;;;;;;4790197;30;20042;-75
2023/03/28 07:25:19;;;;;;;7.00;1.83;;;6.80;97.30;;;;;;4774324;30;20392;-75
2023/03/28 07:27:45;;;;;;;6.25;1.98;;;6.90;97.80;;;;;;4774078;30;20046;-74
2023/03/28 07:30:11;;;;;;;9.40;1.83;;;7.00;98.40;;;;;;4774680;30;20370;-73
2023/03/28 07:32:38;;;;;;;9.77;1.80;;;7.10;98.30;;;;;;4773501;30;20050;-72
2023/03/28 07:35:05;;;;;;;8.82;2.17;;;7.20;98.10;;;;;;4774251;30;20483;-73
2023/03/28 07:37:32;;;;;;;10.23;2.28;;;7.30;97.80;;;;;;4788531;30;20449;-72
2023/03/28 07:39:59;;;;;;;10.80;1.98;;;7.40;97.80;;;;;;4773755;30;20031;-73
2023/03/28 07:42:28;;;;;;;7.22;2.25;;;7.40;97.40;;;;;;4758676;30;20051;-74
2023/03/28 07:44:54;;;;;;;9.70;2.20;;;7.40;96.90;;;;;;4788664;30;20488;-74
2023/03/28 07:47:20;;;;;;;9.50;2.58;;;7.40;96.50;;;;;;4773765;30;20035;-74
2023/03/28 07:49:46;;;;;;;7.45;1.88;;;7.40;96.60;;;;;;4787523;29;20435;-76
2023/03/28 07:52:12;;;;;;;7.30;2.10;;;7.40;96.00;;;;;;4789860;30;20031;-75
2023/03/28 07:54:38;;;;;;;9.43;3.28;;;7.30;95.30;;;;;;4790316;30;20456;-74
2023/03/28 07:57:05;;;;;;;10.07;2.60;;;7.40;95.40;;;;;;4789602;30;20070;-75
2023/03/28 07:59:30;;;;;;;8.93;3.03;;;7.40;95.40;;;;;;4790018;30;20389;-75
2023/03/28 08:01:56;;;;;;;10.07;2.60;;;7.40;95.40;;;;;;4773721;30;20039;-77
2023/03/28 08:04:22;;;;;;;10.10;2.55;;;7.50;95.50;;;;;;4789440;30;20043;-75
2023/03/28 08:06:47;;;;;;;6.68;2.17;;;7.70;95.30;;;;;;4773425;30;20035;-76
2023/03/28 08:09:15;;;;;;;11.15;3.53;;;7.80;95.20;;;;;;4773625;30;20118;-76
2023/03/28 08:11:42;;;;;;;6.53;2.60;;;7.90;95.30;;;;;;4788555;30;20034;-75
2023/03/28 08:14:11;;;;;;;6.68;2.83;;;8.00;94.50;;;;;;4789693;30;20051;-76
2023/03/28 08:16:38;;;;;;;11.68;3.08;;;8.00;94.50;;;;;;4788421;30;20035;-76
2023/03/28 08:19:03;;;;;;;15.55;3.97;;;8.10;94.00;;;;;;4789902;30;20088;-76
2023/03/28 08:21:34;;;;;;;9.43;2.85;;;8.10;94.40;;;;;;4788668;30;20027;-75
2023/03/28 08:24:00;;;;;;;9.00;2.10;;;8.30;94.50;;;;;;4789568;30;20074;-75
2023/03/28 08:26:27;;;;;;;9.32;2.42;;;8.20;93.10;;;;;;4789521;30;20031;-75
2023/03/28 08:28:53;;;;;;;11.00;3.08;;;8.10;93.40;;;;;;4788771;30;20031;-75
2023/03/28 08:31:22;;;;;;;9.82;2.50;;;8.20;93.60;;;;;;4789110;30;20039;-75
2023/03/28 08:33:53;;;;;;;8.27;2.70;;;8.20;93.50;;;;;;4773122;30;20047;-75
2023/03/28 08:36:20;;;;;;;9.52;2.88;;;8.30;93.40;;;;;;4788427;30;20347;-75
2023/03/28 08:38:50;;;;;;;13.70;2.75;;;8.20;93.30;;;;;;4773407;30;20032;-75
2023/03/28 08:41:48;;;;;;;9.50;2.45;;;8.20;93.50;;;;;;4772884;30;20062;-79
2023/03/28 08:44:37;;;;;;;8.77;2.67;;;8.30;93.70;;;;;;4789203;30;20093;-75
2023/03/28 08:47:11;;;;;;;12.85;2.50;;;8.40;93.10;;;;;;4789064;30;20031;-74
2023/03/28 08:49:50;;;;;;;12.80;2.97;;;8.40;92.90;;;;;;4789529;30;20032;-79
2023/03/28 08:52:19;;;;;;;11.20;2.60;;;8.50;93.50;;;;;;4796821;30;20031;-77
2023/03/28 08:55:01;;;;;;;14.18;2.40;;;8.50;92.90;;;;;;4778994;30;20043;-81
2023/03/28 08:57:33;;;;;;;12.70;2.67;;;8.50;92.70;;;;;;4785099;30;20492;-82
2023/03/28 09:00:27;;;;;;;8.85;2.00;;;8.60;92.90;;;;;;4780250;30;20031;-77
2023/03/28 09:02:54;;;;;;;5.13;1.98;;;8.50;92.10;;;;;;4789101;30;20037;-75
2023/03/28 09:05:46;;;;;;;12.40;2.70;;;8.50;92.10;;;;;;4772282;30;20180;-75
2023/03/28 09:08:22;;;;;;;11.00;2.30;;;8.60;91.80;;;;;;4788309;30;20034;-75
2023/03/28 09:10:55;;;;;;;14.68;2.67;;;8.70;91.20;;;;;;4773006;30;20028;-77
2023/03/28 09:13:31;;;;;;;;;;;8.70;90.90;;;;;;4789060;30;20031;-76
2023/03/28 09:16:24;;;;;;;13.95;2.50;;;8.70;90.60;;;;;;4788602;30;19974;-76
2023/03/28 09:19:14;;;;;;;9.05;1.80;;;8.80;91.30;;;;;;4788596;30;20363;-75
2023/03/28 09:21:58;;;;;;;10.45;2.08;;;8.80;91.20;;;;;;4788217;30;20492;-78
2023/03/28 09:24:42;;;;;;;8.77;1.92;;;8.90;90.90;;;;;;4772661;30;20039;-74
2023/03/28 09:27:20;;;;;;;9.98;1.98;;;9.00;90.80;;;;;;4788542;30;20031;-74
2023/03/28 09:29:47;;;;;;;6.93;1.20;;;9.00;89.80;;;;;;4772782;30;20053;-76
2023/03/28 09:32:23;;;;;;;7.85;1.40;;;8.90;87.90;;;;;;4788309;30;20035;-75
2023/03/28 09:34:51;;;;;;;10.50;1.67;;;8.80;86.30;;;;;;4788402;30;20047;-76
2023/03/28 09:37:40;;;;;;;9.07;1.60;;;8.80;85.40;;;;;;4786958;30;20042;-76
2023/03/28 09:40:16;;;;;;;8.77;1.60;;;8.80;85.20;;;;;;4788688;30;20035;-75
2023/03/28 09:42:55;;;;;;;9.73;1.70;;;8.80;85.70;;;;;;4787016;30;20486;-75
2023/03/28 09:45:29;;;;;;;7.13;1.40;;;8.80;85.20;;;;;;4772391;30;20074;-76
2023/03/28 09:47:55;;;;;;;7.45;1.52;;;8.80;85.30;;;;;;4786865;30;20051;-75
2023/03/28 09:50:21;;;;;;;5.28;1.52;;;9.00;84.20;;;;;;4772571;30;20122;-75
2023/03/28 09:52:49;;;;;;;9.88;1.80;;;9.10;84.20;;;;;;4772562;30;20070;-76
2023/03/28 09:55:20;;;;;;;8.32;1.50;;;9.20;84.10;;;;;;4788256;30;20035;-76
2023/03/28 09:58:04;;;;;;;8.88;1.55;;;9.40;83.10;;;;;;4772648;30;20042;-76
2023/03/28 10:00:36;;;;;;;6.32;1.92;;;9.60;80.50;;;;;;4788157;30;20043;-75
2023/03/28 10:03:02;;;;;;;10.45;1.80;;;9.70;79.30;;;;;;4788404;30;20088;-75
2023/03/28 10:05:33;;;;;;;5.45;1.52;;;9.80;77.40;;;;;;4788014;30;20094;-75
2023/03/28 10:08:03;;;;;;;6.60;1.92;;;9.70;77.80;;;;;;4771767;30;20039;-76
2023/03/28 10:10:29;;;;;;;9.43;1.85;;;9.70;77.10;;;;;;4787191;30;20042;-76
2023/03/28 10:12:57;;;;;;;5.75;1.65;;;9.70;78.40;;;;;;4773678;30;20047;-76
2023/03/28 10:15:44;;;;;;;5.78;1.38;;;9.70;76.60;;;;;;4791465;30;20051;-75
2023/03/28 10:18:19;;;;;;;5.82;1.30;;;9.60;75.60;;;;;;4790762;30;20042;-75
2023/03/28 10:20:47;;;;;;;4.80;1.20;;;9.50;76.80;;;;;;4791822;30;20066;-76
2023/03/28 10:23:13;;;;;;;6.38;1.35;;;9.50;76.30;;;;;;4791135;30;20039;-75
2023/03/28 10:25:41;;;;;;;7.13;1.40;;;9.50;76.00;;;;;;4791670;30;20071;-76
2023/03/28 10:28:15;;;;;;;4.28;1.30;;;9.50;75.40;;;;;;4791315;30;20031;-75
2023/03/28 10:30:41;;;;;;;7.45;1.90;;;9.50;75.50;;;;;;4775063;30;20035;-76
2023/03/28 10:33:16;;;;;;;9.60;1.70;;;9.50;76.80;;;;;;4775459;30;20046;-75
2023/03/28 10:36:06;;;;;;;10.35;1.92;;;9.50;76.20;;;;;;4774982;30;20039;-76
2023/03/28 10:38:47;;;;;;;5.72;1.60;;;9.60;76.40;;;;;;4790520;30;20489;-74
2023/03/28 10:41:21;;;;;;;5.93;1.67;;;9.70;77.20;;;;;;4791020;30;20051;-74
2023/03/28 10:43:47;;;;;;;7.43;2.08;;;9.80;77.50;;;;;;4791344;30;20095;-77
2023/03/28 10:46:22;;;;;;;4.97;1.38;;;9.90;77.00;;;;;;4775062;30;20492;-77
2023/03/28 10:48:52;;;;;;;7.22;1.55;;;10.00;76.60;;;;;;4791729;30;20039;-77
2023/03/28 10:51:23;;;;;;;6.82;1.40;;;10.00;74.90;;;;;;4790906;30;20509;-76
2023/03/28 10:54:07;;;;;;;7.05;1.52;;;10.10;73.50;;;;;;4789837;30;20134;-78
2023/03/28 10:56:40;;;;;;;6.28;2.05;;;10.10;72.60;;;;;;4791246;30;20085;-77
2023/03/28 10:59:27;;;;;;;11.40;1.73;;;10.00;72.80;;;;;;4774614;30;20084;-76
2023/03/28 11:02:25;;;;;;;9.07;1.70;;;10.00;73.50;;;;;;4791089;30;20039;-77
2023/03/28 11:05:12;;;;;;;5.15;1.65;;;9.90;72.20;;;;;;4791036;30;20039;-75
2023/03/28 11:07:55;;;;;;;4.60;1.17;;;9.80;72.90;;;;;;4790691;30;20028;-74
2023/03/28 11:10:53;;;;;;;5.95;1.10;;;9.80;70.20;;;;;;4775162;30;20238;-75
2023/03/28 11:13:47;;;;;;;5.22;1.13;;;9.70;71.30;;;;;;4789297;30;20500;-77
2023/03/28 11:16:31;;;;;;;6.05;1.55;;;9.60;72.10;;;;;;4789347;30;20065;-75
2023/03/28 11:19:25;;;;;;;7.28;1.77;;;9.70;73.00;;;;;;4789279;30;20525;-75
2023/03/28 11:22:28;;;;;;;6.68;1.13;;;9.60;72.10;;;;;;4789290;30;20470;-75
2023/03/28 11:25:16;;;;;;;7.35;1.33;;;9.60;71.90;;;;;;4789038;30;20035;-75
2023/03/28 11:27:56;;;;;;;5.57;1.20;;;9.60;73.40;;;;;;4790424;30;20031;-76
2023/03/28 11:30:30;;;;;;;4.85;1.20;;;9.60;71.50;;;;;;4789062;30;20066;-76
2023/03/28 11:33:18;;;;;;;4.78;1.00;;;9.60;71.40;;;;;;4790748;30;20039;-75
2023/03/28 11:35:51;;;;;;;8.75;1.38;;;9.50;71.30;;;;;;4789428;30;20105;-75
2023/03/28 11:38:25;;;;;;;;;;;9.60;71.00;;;;;;4790211;30;20100;-76
2023/03/28 11:40:54;;;;;;;5.35;1.42;;;9.60;72.00;;;;;;4790211;30;19909;-76
2023/03/28 11:43:30;;;;;;;6.15;1.30;;;9.60;72.00;;;;;;4788687;30;20047;-76
2023/03/28 11:46:03;;;;;;;6.05;1.30;;;9.70;72.00;;;;;;4773720;30;20027;-76
2023/03/28 11:48:54;;;;;;;4.90;0.80;;;9.70;71.30;;;;;;4790356;30;20037;-77
2023/03/28 11:51:44;;;;;;;4.32;1.00;;;9.80;73.20;;;;;;4774286;30;20039;-75
2023/03/28 11:54:56;;;;;;;4.68;0.95;;;10.00;71.50;;;;;;4789829;30;20176;-75
2023/03/28 11:57:50;;;;;;;4.07;1.00;;;10.20;70.70;;;;;;4780234;30;20047;-76
2023/03/28 12:00:33;;;;;;;10.70;1.00;;;10.30;69.30;;;;;;4760387;30;20485;-75
2023/03/28 12:03:17;;;;;;;4.45;0.90;;;10.30;70.20;;;;;;4788210;30;20088;-75
2023/03/28 12:05:49;;;;;;;4.85;1.00;;;10.30;70.00;;;;;;4789093;30;20423;-75
2023/03/28 12:08:42;;;;;;;7.60;1.20;;;10.30;70.20;;;;;;4789335;30;20495;-75
2023/03/28 12:11:22;;;;;;;3.92;0.88;;;10.30;69.20;;;;;;4788575;30;20130;-78
2023/03/28 12:13:53;;;;;;;6.38;1.33;;;10.30;69.00;;;;;;4788659;30;20134;-76
2023/03/28 12:16:45;;;;;;;6.68;1.10;;;10.30;69.20;;;;;;4788147;30;20070;-76
2023/03/28 12:19:16;;;;;;;6.65;1.15;;;10.30;69.90;;;;;;4788538;30;20080;-79
2023/03/28 12:21:50;;;;;;;4.93;0.98;;;10.30;69.90;;;;;;4787215;30;20042;-75
2023/03/28 12:24:55;;;;;;;6.78;1.77;;;10.30;69.00;;;;;;4786878;30;20055;-77
2023/03/28 12:27:41;;;;;;;5.50;1.10;;;10.30;69.80;;;;;;4770493;30;20043;-76
2023/03/28 12:30:29;;;;;;;7.70;1.25;;;10.40;70.00;;;;;;4789115;30;20038;-77
2023/03/28 12:33:01;;;;;;;10.82;1.67;;;10.40;68.90;;;;;;4790819;30;20392;-82
2023/03/28 12:35:48;;;;;;;6.75;1.25;;;10.50;69.70;;;;;;4794010;29;20066;-79
2023/03/28 12:38:28;;;;;;;4.50;1.25;;;10.50;70.20;;;;;;4788371;30;20037;-79
2023/03/28 12:41:03;;;;;;;4.65;1.08;;;10.60;69.60;;;;;;4772871;30;20031;-78
2023/03/28 12:43:43;;;;;;;6.50;1.50;;;10.60;69.60;;;;;;4789181;30;20056;-75
2023/03/28 12:46:37;;;;;;;7.28;1.70;;;10.60;69.00;;;;;;4789526;30;20038;-76
2023/03/28 12:49:11;;;;;;;4.03;1.38;;;10.60;67.90;;;;;;4770799;30;20035;-75
2023/03/28 12:51:42;;;;;;;4.07;1.50;;;10.50;68.50;;;;;;4788692;30;20091;-79
2023/03/28 12:54:13;;;;;;;7.18;1.98;;;10.50;68.20;;;;;;4787607;30;20040;-75
2023/03/28 12:56:39;;;;;;;5.63;1.40;;;10.40;67.50;;;;;;4788586;30;20031;-74
2023/03/28 12:59:37;;;;;;;8.50;1.63;;;10.40;67.00;;;;;;4789372;30;20043;-74
2023/03/28 13:02:34;;;;;;;7.72;1.40;;;10.30;68.30;;;;;;4788813;30;20039;-76
2023/03/28 13:05:25;;;;;;;5.43;1.77;;;10.40;69.00;;;;;;4789058;30;20035;-76
2023/03/28 13:08:05;;;;;;;3.78;1.50;;;10.40;67.70;;;;;;4788604;30;20076;-75
2023/03/28 13:11:01;;;;;;;5.40;1.30;;;10.50;69.00;;;;;;4788520;30;20144;-75
2023/03/28 13:14:02;;;;;;;5.97;1.58;;;10.50;67.70;;;;;;4788688;30;20031;-76
2023/03/28 13:16:44;;;;;;;8.45;2.30;;;10.40;67.60;;;;;;4788912;30;20036;-75
2023/03/28 13:19:11;;;;;;;4.75;1.40;;;10.50;68.80;;;;;;4788232;30;20081;-77
2023/03/28 13:21:56;;;;;;;6.40;1.48;;;10.50;67.60;;;;;;4788714;30;20122;-76